Time;durP1;ratioP1;P1;durP2;ratioP2;P2;SDS_P1;SDS_P2;PMS_P1;PMS_P2;Temp;Humidity;BMP_temperature;BMP_pressure;BME280_temperature;BME280_humidity;BME280_pressure;Samples;Min_cycle;Max_cycle;Signal;HPM_P1;HPM_P2
2022/05/08 00:00:47;;;;;;;1.23;0.80;;;11.70;99.90;;;;;;5077201;28;20537;-89
2022/05/08 00:03:14;;;;;;;3.10;1.87;;;11.60;99.90;;;;;;5077354;28;20448;-89
2022/05/08 00:05:46;;;;;;;3.80;1.30;;;11.60;99.90;;;;;;5075666;28;20433;-89
2022/05/08 00:08:18;;;;;;;1.93;1.33;;;11.60;99.90;;;;;;5077996;28;20467;-89
2022/05/08 00:10:45;;;;;;;2.50;1.40;;;11.60;99.90;;;;;;5077425;28;20496;-89
2022/05/08 00:13:11;;;;;;;1.00;1.00;;;11.50;99.90;;;;;;5077042;28;20449;-90
2022/05/08 00:15:38;;;;;;;2.60;1.17;;;11.60;99.90;;;;;;5077017;28;20448;-89
2022/05/08 00:18:05;;;;;;;0.90;0.90;;;11.50;99.90;;;;;;5076988;28;20503;-89
2022/05/08 00:20:32;;;;;;;1.80;1.37;;;11.50;99.90;;;;;;5076852;28;20825;-89
2022/05/08 00:23:01;;;;;;;1.03;0.93;;;11.50;99.90;;;;;;5076788;28;20498;-89
2022/05/08 00:25:28;;;;;;;1.33;1.07;;;11.40;99.90;;;;;;5076599;28;20940;-89
2022/05/08 00:27:54;;;;;;;3.27;1.30;;;11.40;99.90;;;;;;5076865;28;20449;-90
2022/05/08 00:30:21;;;;;;;2.63;1.07;;;11.40;99.90;;;;;;5076796;28;20461;-90
2022/05/08 00:32:48;;;;;;;1.53;0.80;;;11.40;99.90;;;;;;5076353;28;20485;-88
2022/05/08 00:35:14;;;;;;;1.73;1.40;;;11.40;99.90;;;;;;5075350;28;20506;-89
2022/05/08 00:37:41;;;;;;;1.20;1.10;;;11.30;99.90;;;;;;5076892;28;20433;-89
2022/05/08 00:40:10;;;;;;;2.23;1.57;;;11.30;99.90;;;;;;5076265;28;20559;-89
2022/05/08 00:42:36;;;;;;;4.13;1.97;;;11.20;99.90;;;;;;5076382;28;20488;-90
2022/05/08 00:45:04;;;;;;;2.97;1.10;;;11.20;99.90;;;;;;5076601;28;20453;-90
2022/05/08 00:47:31;;;;;;;2.60;1.37;;;11.20;99.90;;;;;;5076923;28;20802;-90
2022/05/08 00:49:58;;;;;;;1.17;1.00;;;11.10;99.90;;;;;;5076521;28;20480;-90
2022/05/08 00:52:27;;;;;;;1.30;1.10;;;11.10;99.90;;;;;;5076218;28;20443;-90
2022/05/08 00:54:54;;;;;;;2.70;1.17;;;11.00;99.90;;;;;;5076218;28;20434;-90
2022/05/08 00:57:22;;;;;;;2.10;1.37;;;11.00;99.90;;;;;;5076349;28;20429;-90
2022/05/08 00:59:49;;;;;;;1.20;1.10;;;11.00;99.90;;;;;;5076659;28;20469;-90
2022/05/08 01:02:17;;;;;;;3.57;1.40;;;11.00;99.90;;;;;;5076241;28;20485;-90
2022/05/08 01:04:44;;;;;;;1.17;1.03;;;10.90;99.90;;;;;;5076250;28;20449;-90
2022/05/08 01:07:12;;;;;;;0.80;0.80;;;10.90;99.90;;;;;;5076277;28;20456;-90
2022/05/08 01:09:39;;;;;;;3.70;1.67;;;10.90;99.90;;;;;;5076322;28;20479;-90
2022/05/08 01:12:08;;;;;;;4.30;1.90;;;10.90;99.90;;;;;;5076162;28;20453;-90
2022/05/08 01:14:36;;;;;;;1.73;1.30;;;10.80;99.90;;;;;;5076123;28;20436;-89
2022/05/08 01:17:03;;;;;;;2.00;1.33;;;10.80;99.90;;;;;;5075581;28;20460;-90
2022/05/08 01:19:30;;;;;;;1.70;1.60;;;10.70;99.90;;;;;;5075742;28;20469;-90
2022/05/08 01:21:58;;;;;;;1.33;0.70;;;10.80;99.90;;;;;;5075610;28;20500;-90
2022/05/08 01:24:25;;;;;;;2.73;1.50;;;10.80;99.90;;;;;;5075791;28;20457;-90
2022/05/08 01:26:52;;;;;;;2.40;1.63;;;10.70;99.90;;;;;;5076220;28;20453;-90
2022/05/08 01:29:18;;;;;;;0.73;0.73;;;10.70;99.90;;;;;;5075938;28;20465;-90
2022/05/08 01:31:45;;;;;;;1.27;1.00;;;10.70;99.90;;;;;;5075395;28;20441;-90
2022/05/08 01:34:12;;;;;;;3.37;1.63;;;10.70;99.90;;;;;;5075999;28;20453;-90
2022/05/08 01:36:41;;;;;;;3.23;2.17;;;10.80;99.90;;;;;;5075542;28;20452;-88
2022/05/08 01:39:09;;;;;;;2.07;1.93;;;10.80;99.90;;;;;;5075446;28;20975;-90
2022/05/08 01:41:36;;;;;;;0.87;0.87;;;10.80;99.90;;;;;;5075379;28;20850;-90
2022/05/08 01:44:03;;;;;;;2.97;1.50;;;10.80;99.90;;;;;;5075130;28;20433;-90
2022/05/08 01:46:30;;;;;;;1.00;0.97;;;10.80;99.90;;;;;;5074867;28;20963;-90
2022/05/08 01:48:55;;;;;;;1.30;0.80;;;10.80;99.90;;;;;;5075123;28;20818;-90
2022/05/08 01:51:23;;;;;;;0.90;0.90;;;10.80;99.90;;;;;;5075808;28;20445;-90
2022/05/08 01:53:51;;;;;;;2.23;0.87;;;10.90;99.90;;;;;;5075134;28;20245;-90
2022/05/08 01:56:24;;;;;;;3.73;1.40;;;10.80;99.90;;;;;;5074940;28;20437;-90
2022/05/08 01:58:52;;;;;;;1.67;1.13;;;10.80;99.90;;;;;;5075134;28;20421;-90
2022/05/08 02:01:19;;;;;;;1.17;1.07;;;10.80;99.90;;;;;;5074872;28;20589;-90
2022/05/08 02:03:46;;;;;;;0.80;0.73;;;10.80;99.90;;;;;;5074894;28;20456;-90
2022/05/08 02:06:15;;;;;;;1.80;0.87;;;10.80;99.90;;;;;;5075023;28;20469;-90
2022/05/08 02:08:42;;;;;;;1.20;0.73;;;10.80;99.90;;;;;;5074612;28;20429;-90
2022/05/08 02:11:09;;;;;;;2.03;1.20;;;10.70;99.90;;;;;;5074687;28;20443;-90
2022/05/08 02:13:37;;;;;;;1.30;1.17;;;10.70;99.90;;;;;;5074684;28;20453;-90
2022/05/08 02:16:04;;;;;;;1.60;0.93;;;10.60;99.90;;;;;;5074890;28;20453;-90
2022/05/08 02:18:31;;;;;;;1.80;0.73;;;10.60;99.90;;;;;;5074575;28;20445;-90
2022/05/08 02:20:57;;;;;;;4.33;1.30;;;10.50;99.90;;;;;;5074730;28;20449;-90
2022/05/08 02:23:24;;;;;;;4.80;1.60;;;10.40;99.90;;;;;;5074956;28;20456;-90
2022/05/08 02:25:51;;;;;;;2.20;0.90;;;10.40;99.90;;;;;;5074602;28;20431;-90
2022/05/08 02:28:17;;;;;;;1.27;1.20;;;10.40;99.90;;;;;;5074840;28;20460;-90
2022/05/08 02:30:46;;;;;;;1.37;1.27;;;10.30;99.90;;;;;;5074646;28;20464;-90
2022/05/08 02:33:12;;;;;;;5.40;1.47;;;10.30;99.90;;;;;;5074402;28;20477;-90
2022/05/08 02:35:40;;;;;;;2.30;1.40;;;10.30;99.90;;;;;;5074541;28;20456;-90
2022/05/08 02:38:06;;;;;;;4.47;0.70;;;10.30;99.90;;;;;;5074348;28;20495;-90
2022/05/08 02:40:33;;;;;;;1.07;0.67;;;10.30;99.90;;;;;;5074248;28;20461;-89
2022/05/08 02:43:00;;;;;;;2.30;1.13;;;10.30;99.90;;;;;;5074516;28;20473;-89
2022/05/08 02:45:27;;;;;;;1.10;0.80;;;10.30;99.90;;;;;;5074133;28;20437;-90
2022/05/08 02:47:56;;;;;;;1.27;0.90;;;10.30;99.90;;;;;;5074425;28;20456;-90
2022/05/08 02:50:23;;;;;;;1.13;0.93;;;10.20;99.90;;;;;;5074143;28;20483;-90
2022/05/08 02:52:50;;;;;;;1.47;0.70;;;10.20;99.90;;;;;;5074121;28;20459;-90
2022/05/08 03:00:47;;;;;;;1.03;0.73;;;10.20;99.90;;;;;;5074388;28;20807;-88
2022/05/08 03:03:17;;;;;;;2.30;1.33;;;10.10;99.90;;;;;;5074037;28;20476;-90
2022/05/08 03:05:45;;;;;;;1.17;1.00;;;10.10;99.90;;;;;;5074008;28;20912;-90
2022/05/08 03:08:14;;;;;;;0.60;0.60;;;10.00;99.90;;;;;;5074453;28;20456;-90
2022/05/08 03:13:26;;;;;;;3.57;1.70;;;10.00;99.90;;;;;;5074298;28;20404;-90
2022/05/08 03:15:53;;;;;;;2.77;1.13;;;10.10;99.90;;;;;;5074274;28;20456;-90
2022/05/08 03:18:21;;;;;;;0.70;0.57;;;10.10;99.90;;;;;;5074340;28;20456;-90
2022/05/08 03:31:01;;;;;;;2.30;2.20;;;9.90;99.90;;;;;;4920980;28;20465;-90
2022/05/08 03:33:30;;;;;;;1.70;1.60;;;9.80;99.90;;;;;;5073817;28;20482;-90
2022/05/08 03:35:58;;;;;;;1.40;0.80;;;9.70;99.90;;;;;;5073909;28;20434;-89
2022/05/08 03:38:25;;;;;;;1.90;1.10;;;9.70;99.90;;;;;;5074065;28;20455;-90
2022/05/08 03:40:52;;;;;;;3.70;1.00;;;9.70;99.90;;;;;;5074011;28;20469;-89
2022/05/08 03:43:19;;;;;;;2.10;1.10;;;9.70;99.90;;;;;;5074048;28;21009;-90
2022/05/08 03:45:48;;;;;;;1.63;1.50;;;9.70;99.90;;;;;;5074014;28;20452;-90
2022/05/08 03:48:15;;;;;;;2.73;1.07;;;9.70;99.90;;;;;;5074285;28;20461;-90
2022/05/08 03:50:43;;;;;;;0.83;0.70;;;9.80;99.90;;;;;;5073463;28;20457;-90
2022/05/08 03:53:10;;;;;;;0.50;0.50;;;9.70;99.90;;;;;;5073758;28;20448;-90
2022/05/08 03:55:37;;;;;;;0.97;0.70;;;9.60;99.90;;;;;;5073794;28;20499;-90
2022/05/08 03:58:04;;;;;;;2.20;0.97;;;9.60;99.90;;;;;;5073778;28;20444;-90
2022/05/08 04:00:31;;;;;;;0.77;0.77;;;9.60;99.90;;;;;;5073840;28;20552;-90
2022/05/08 04:03:03;;;;;;;1.17;1.00;;;9.50;99.90;;;;;;5073687;28;20555;-90
2022/05/08 04:05:30;;;;;;;1.47;1.37;;;9.50;99.90;;;;;;5073811;28;20413;-90
2022/05/08 04:07:58;;;;;;;1.40;0.93;;;9.50;99.90;;;;;;5073986;28;20544;-91
2022/05/08 04:10:25;;;;;;;0.60;0.60;;;9.50;99.90;;;;;;5075094;28;20995;-90
2022/05/08 04:12:51;;;;;;;0.90;0.90;;;9.50;99.90;;;;;;5077251;28;20453;-90
2022/05/08 04:17:59;;;;;;;1.87;0.77;;;9.50;99.90;;;;;;5054413;28;20457;-90
2022/05/08 04:20:26;;;;;;;2.40;0.90;;;9.50;99.90;;;;;;5076971;28;20476;-90
2022/05/08 04:25:38;;;;;;;2.73;0.90;;;9.50;99.90;;;;;;5077100;28;20902;-90
2022/05/08 04:28:05;;;;;;;0.80;0.60;;;9.50;99.90;;;;;;5077091;28;20844;-90
2022/05/08 04:30:32;;;;;;;1.50;0.60;;;9.50;99.90;;;;;;5076907;28;20469;-90
2022/05/08 04:32:59;;;;;;;1.60;0.77;;;9.60;99.90;;;;;;5076600;28;20480;-90
2022/05/08 04:35:25;;;;;;;0.67;0.50;;;9.60;99.90;;;;;;5076555;28;20437;-91
2022/05/08 04:37:52;;;;;;;1.73;0.90;;;9.60;99.90;;;;;;5076674;28;20433;-90
2022/05/08 04:40:19;;;;;;;1.07;0.80;;;9.60;99.90;;;;;;5077000;28;20473;-90
2022/05/08 04:42:47;;;;;;;3.03;0.60;;;9.70;99.90;;;;;;5077108;28;20955;-91
2022/05/08 04:45:14;;;;;;;2.07;0.87;;;9.70;99.90;;;;;;5076662;28;20453;-90
2022/05/08 04:47:40;;;;;;;1.63;0.80;;;9.80;99.90;;;;;;5076551;28;20437;-90
2022/05/08 04:50:08;;;;;;;1.03;0.80;;;9.80;99.90;;;;;;5076623;28;20468;-90
2022/05/08 04:52:35;;;;;;;0.70;0.50;;;9.80;99.90;;;;;;5076691;28;20525;-90
2022/05/08 04:55:03;;;;;;;1.10;1.00;;;9.90;99.90;;;;;;5076552;28;20851;-90
2022/05/08 04:57:29;;;;;;;2.83;1.63;;;10.00;99.90;;;;;;5076554;28;20536;-90
2022/05/08 04:59:58;;;;;;;2.50;0.93;;;10.10;99.90;;;;;;5076015;28;20454;-90
2022/05/08 05:02:24;;;;;;;0.83;0.53;;;10.20;99.90;;;;;;5076352;28;20493;-90
2022/05/08 05:04:51;;;;;;;0.70;0.60;;;10.20;99.90;;;;;;5076515;28;20453;-90
2022/05/08 05:07:18;;;;;;;0.83;0.80;;;10.20;99.90;;;;;;5076234;28;20503;-90
2022/05/08 05:09:44;;;;;;;1.10;0.77;;;10.30;99.90;;;;;;5075905;28;20456;-90
2022/05/08 05:12:13;;;;;;;1.80;0.50;;;10.30;99.90;;;;;;5076031;28;20440;-90
2022/05/08 05:14:39;;;;;;;2.10;0.80;;;10.30;99.90;;;;;;5076003;28;20445;-90
2022/05/08 05:17:07;;;;;;;0.80;0.63;;;10.30;99.90;;;;;;5075690;28;20932;-90
2022/05/08 05:19:34;;;;;;;0.67;0.67;;;10.30;99.90;;;;;;5075674;28;20480;-90
2022/05/08 05:22:01;;;;;;;1.07;0.97;;;10.30;99.90;;;;;;5075310;28;20491;-90
2022/05/08 05:24:29;;;;;;;1.37;1.00;;;10.30;99.90;;;;;;5076294;28;20457;-90
2022/05/08 05:26:56;;;;;;;1.13;0.70;;;10.30;99.90;;;;;;5075484;28;20813;-90
2022/05/08 05:29:22;;;;;;;0.70;0.50;;;10.30;99.90;;;;;;5075630;28;20469;-90
2022/05/08 05:31:49;;;;;;;2.47;1.03;;;10.30;99.90;;;;;;5075578;28;20441;-90
2022/05/08 05:34:17;;;;;;;1.43;1.33;;;10.30;99.90;;;;;;5075869;28;20433;-90
2022/05/08 05:36:44;;;;;;;0.90;0.70;;;10.40;99.90;;;;;;5076136;28;20429;-90
2022/05/08 05:39:11;;;;;;;1.77;1.00;;;10.40;99.90;;;;;;5075761;28;20480;-90
2022/05/08 05:41:37;;;;;;;0.60;0.60;;;10.40;99.90;;;;;;5075278;28;20433;-90
2022/05/08 05:44:04;;;;;;;1.23;1.00;;;10.40;99.90;;;;;;5075954;28;20472;-90
2022/05/08 05:49:16;;;;;;;4.63;1.13;;;10.50;99.90;;;;;;5075093;28;20582;-90
2022/05/08 05:51:43;;;;;;;2.77;1.60;;;10.60;99.90;;;;;;5074939;28;20956;-90
2022/05/08 05:54:10;;;;;;;1.50;1.20;;;10.70;99.90;;;;;;5075200;28;20445;-90
2022/05/08 05:56:37;;;;;;;10.93;1.60;;;10.70;99.90;;;;;;5075549;28;20456;-90
2022/05/08 05:59:04;;;;;;;5.20;1.70;;;10.80;99.90;;;;;;5075160;28;20472;-91
2022/05/08 06:01:30;;;;;;;0.80;0.80;;;10.80;99.90;;;;;;5075150;28;20916;-91
2022/05/08 06:03:57;;;;;;;0.93;0.67;;;10.90;99.90;;;;;;5075254;28;20489;-90
2022/05/08 06:06:25;;;;;;;1.70;1.60;;;10.90;99.90;;;;;;5082331;28;20440;-90
2022/05/08 06:08:52;;;;;;;2.50;1.33;;;11.00;99.90;;;;;;5076055;28;20452;-90
2022/05/08 06:11:19;;;;;;;2.03;1.83;;;11.10;99.90;;;;;;5076829;28;20429;-90
2022/05/08 06:13:46;;;;;;;1.57;1.00;;;11.20;99.90;;;;;;5075929;28;20441;-91
2022/05/08 06:16:14;;;;;;;1.40;1.30;;;11.20;99.90;;;;;;5078915;28;20544;-90
2022/05/08 06:18:41;;;;;;;0.77;0.77;;;11.30;99.90;;;;;;5078454;28;20425;-89
2022/05/08 06:21:08;;;;;;;1.87;1.40;;;11.40;99.90;;;;;;5083120;28;20489;-90
2022/05/08 06:23:36;;;;;;;1.43;1.00;;;11.60;99.90;;;;;;5082242;28;20479;-89
2022/05/08 06:26:04;;;;;;;0.97;0.97;;;11.60;99.90;;;;;;5082046;28;20433;-89
2022/05/08 06:28:31;;;;;;;1.97;1.53;;;11.80;99.90;;;;;;5081554;28;20453;-89
2022/05/08 06:30:58;;;;;;;2.90;0.87;;;11.90;99.90;;;;;;5083282;28;20575;-88
2022/05/08 06:33:25;;;;;;;1.40;1.07;;;12.10;99.90;;;;;;5083333;28;20473;-88
2022/05/08 06:35:54;;;;;;;0.80;0.80;;;12.30;99.90;;;;;;5077269;28;20519;-90
2022/05/08 06:38:20;;;;;;;1.23;1.13;;;12.50;99.90;;;;;;5074494;28;20445;-90
2022/05/08 06:40:48;;;;;;;1.67;1.53;;;12.70;99.90;;;;;;5074226;28;20476;-90
2022/05/08 06:43:25;;;;;;;3.33;1.77;;;12.90;99.90;;;;;;5074428;28;20992;-90
2022/05/08 06:45:52;;;;;;;2.00;1.30;;;13.00;99.90;;;;;;5074625;28;20993;-90
2022/05/08 06:51:48;;;;;;;2.27;2.07;;;13.40;99.90;;;;;;5074685;28;20404;-90
2022/05/08 06:57:36;;;;;;;4.10;1.30;;;13.50;99.90;;;;;;5074360;28;20462;-89
2022/05/08 07:02:47;;;;;;;1.50;1.40;;;13.70;99.90;;;;;;5073945;28;20463;-89
2022/05/08 07:05:14;;;;;;;1.47;1.37;;;13.90;99.90;;;;;;5074391;28;20435;-89
2022/05/08 07:07:41;;;;;;;1.63;1.53;;;14.10;99.90;;;;;;5074167;28;20437;-89
2022/05/08 07:10:08;;;;;;;2.40;1.50;;;14.20;99.90;;;;;;5074444;28;20473;-89
2022/05/08 07:12:37;;;;;;;2.17;1.57;;;14.20;99.90;;;;;;5074341;28;20444;-89
2022/05/08 07:15:05;;;;;;;4.03;1.50;;;14.30;99.90;;;;;;5074137;28;20444;-89
2022/05/08 07:17:31;;;;;;;2.50;1.60;;;14.40;99.90;;;;;;5073967;28;20433;-89
2022/05/08 07:19:58;;;;;;;3.00;2.80;;;14.40;99.90;;;;;;5074209;28;20477;-89
2022/05/08 07:22:25;;;;;;;8.83;2.20;;;14.60;99.90;;;;;;5073930;28;20439;-89
2022/05/08 07:24:51;;;;;;;3.67;2.03;;;14.80;99.90;;;;;;5073776;28;20434;-89
2022/05/08 07:27:18;;;;;;;3.77;1.83;;;15.00;99.90;;;;;;5073823;28;20433;-90
2022/05/08 07:29:46;;;;;;;2.83;2.03;;;15.10;99.90;;;;;;5073761;28;20499;-88
2022/05/08 07:32:13;;;;;;;2.07;1.60;;;15.30;99.90;;;;;;5073666;28;20448;-89
2022/05/08 07:37:24;;;;;;;2.50;1.70;;;15.50;99.90;;;;;;5074019;28;20780;-89
2022/05/08 07:39:51;;;;;;;1.80;1.63;;;15.60;99.90;;;;;;5075191;28;20590;-89
2022/05/08 07:42:18;;;;;;;1.40;1.30;;;15.70;99.90;;;;;;5074284;28;20453;-89
2022/05/08 07:44:46;;;;;;;2.60;1.90;;;15.80;99.90;;;;;;5076274;28;20492;-88
2022/05/08 07:47:13;;;;;;;6.07;2.20;;;16.00;99.90;;;;;;5077836;28;20943;-89
2022/05/08 07:49:40;;;;;;;4.33;2.10;;;16.30;99.90;;;;;;5077746;28;20500;-89
2022/05/08 07:52:07;;;;;;;3.63;2.73;;;16.40;99.90;;;;;;5077989;28;20924;-89
2022/05/08 07:54:35;;;;;;;3.97;1.97;;;16.50;99.90;;;;;;5077590;28;20448;-89
2022/05/08 07:57:02;;;;;;;1.60;1.50;;;16.60;99.90;;;;;;5077403;28;20464;-89
2022/05/08 07:59:28;;;;;;;4.93;1.47;;;16.60;99.90;;;;;;5077391;28;20564;-89
2022/05/08 08:01:56;;;;;;;4.07;2.60;;;16.70;99.90;;;;;;5077839;28;20445;-89
2022/05/08 08:04:23;;;;;;;2.70;2.30;;;16.70;99.90;;;;;;5077395;28;20461;-89
2022/05/08 08:06:50;;;;;;;2.33;1.67;;;16.70;99.90;;;;;;5077495;28;20456;-90
2022/05/08 08:09:16;;;;;;;2.10;1.80;;;16.80;99.90;;;;;;5077457;28;20464;-89
2022/05/08 08:11:43;;;;;;;2.33;1.23;;;16.80;99.90;;;;;;5099619;28;20452;-89
2022/05/08 08:14:10;;;;;;;4.77;1.87;;;16.80;99.90;;;;;;5085801;28;20426;-90
2022/05/08 08:16:37;;;;;;;2.93;2.20;;;16.80;99.90;;;;;;5077187;28;20928;-90
2022/05/08 08:19:05;;;;;;;5.27;1.60;;;16.90;99.90;;;;;;5078021;28;20510;-89
2022/05/08 08:21:33;;;;;;;2.87;1.93;;;16.90;99.90;;;;;;5077380;28;20455;-90
2022/05/08 08:23:59;;;;;;;6.93;2.90;;;17.00;99.90;;;;;;5076974;28;20519;-89
2022/05/08 08:26:26;;;;;;;5.73;2.23;;;17.20;99.90;;;;;;5077152;28;20453;-89
2022/05/08 08:28:53;;;;;;;3.83;2.57;;;17.30;99.90;;;;;;5076730;28;20449;-89
2022/05/08 08:31:20;;;;;;;2.10;1.07;;;17.40;99.90;;;;;;5076791;28;20457;-90
2022/05/08 08:33:47;;;;;;;1.63;1.53;;;17.60;99.90;;;;;;5076514;28;20473;-90
2022/05/08 08:36:15;;;;;;;3.83;2.40;;;17.70;99.90;;;;;;5076954;28;20939;-89
2022/05/08 08:38:42;;;;;;;1.57;1.47;;;17.70;99.90;;;;;;5076571;28;20943;-89
2022/05/08 08:41:09;;;;;;;1.57;1.47;;;17.90;99.90;;;;;;5077154;28;20449;-89
2022/05/08 08:49:10;;;;;;;2.30;1.60;;;18.30;99.90;;;;;;5076859;28;20436;-89
2022/05/08 08:51:38;;;;;;;5.40;2.40;;;18.50;99.90;;;;;;5084096;28;20531;-90
2022/05/08 08:54:05;;;;;;;2.13;1.10;;;18.50;99.90;;;;;;5078340;28;20426;-90
2022/05/08 08:56:32;;;;;;;2.23;1.20;;;18.60;99.90;;;;;;5076036;28;20445;-90
2022/05/08 08:58:59;;;;;;;1.57;1.40;;;18.70;99.90;;;;;;5076310;28;20445;-90
2022/05/08 09:01:26;;;;;;;1.33;1.23;;;18.80;99.90;;;;;;5077033;28;20437;-90
2022/05/08 09:03:56;;;;;;;1.73;1.27;;;18.90;99.90;;;;;;5077260;28;20459;-90
2022/05/08 09:06:23;;;;;;;2.83;1.13;;;18.90;99.90;;;;;;5077509;28;20444;-90
2022/05/08 09:08:52;;;;;;;1.90;1.40;;;19.00;99.90;;;;;;5076953;28;20449;-90
2022/05/08 09:11:33;;;;;;;1.50;1.40;;;19.10;99.90;;;;;;5077091;28;20418;-88
2022/05/08 09:13:59;;;;;;;4.47;2.00;;;19.20;99.90;;;;;;5076875;28;20420;-90
2022/05/08 09:16:26;;;;;;;2.50;1.30;;;19.40;99.90;;;;;;5077087;28;20421;-87
2022/05/08 09:18:53;;;;;;;2.27;1.30;;;19.50;99.90;;;;;;5077068;28;20433;-86
2022/05/08 09:24:11;;;;;;;5.03;1.67;;;19.80;99.90;;;;;;5075928;28;20957;-86
2022/05/08 09:26:38;;;;;;;2.33;1.40;;;20.00;99.90;;;;;;5075943;28;20444;-85
2022/05/08 09:29:07;;;;;;;1.63;1.53;;;20.10;99.90;;;;;;5075618;28;20527;-85
2022/05/08 09:31:41;;;;;;;1.20;1.00;;;20.30;99.90;;;;;;5075876;28;20536;-86
2022/05/08 09:34:08;;;;;;;1.70;1.07;;;20.30;99.90;;;;;;5075653;28;21024;-86
2022/05/08 09:36:34;;;;;;;3.27;1.83;;;20.40;99.90;;;;;;5075617;28;20931;-86
2022/05/08 09:39:02;;;;;;;2.70;1.90;;;20.30;99.90;;;;;;5075751;28;20468;-86
2022/05/08 09:41:31;;;;;;;4.80;1.73;;;20.20;99.90;;;;;;5075401;28;20448;-86
2022/05/08 09:44:10;;;;;;;1.70;1.10;;;20.20;99.90;;;;;;5075248;28;20487;-86
2022/05/08 09:46:40;;;;;;;3.50;1.73;;;20.20;99.90;;;;;;5075239;28;20437;-86
2022/05/08 09:49:07;;;;;;;5.43;2.30;;;20.20;99.90;;;;;;5076359;28;20465;-84
2022/05/08 09:51:34;;;;;;;1.90;1.30;;;20.20;99.90;;;;;;5076187;28;20478;-84
2022/05/08 09:54:01;;;;;;;1.77;1.67;;;20.20;99.90;;;;;;5076171;28;20433;-86
2022/05/08 09:56:31;;;;;;;3.77;1.87;;;20.20;99.90;;;;;;5074772;28;20508;-85
2022/05/08 09:58:58;;;;;;;4.03;1.70;;;20.20;99.90;;;;;;5075380;28;20544;-87
2022/05/08 10:01:25;;;;;;;1.20;1.03;;;20.20;98.40;;;;;;5075523;28;20793;-85
2022/05/08 10:03:52;;;;;;;2.67;1.83;;;20.20;97.20;;;;;;5075453;28;20516;-84
2022/05/08 10:06:20;;;;;;;2.17;1.43;;;20.40;97.90;;;;;;5074565;28;20463;-84
2022/05/08 10:08:48;;;;;;;1.43;1.33;;;20.40;97.00;;;;;;5074687;28;20479;-84
2022/05/08 10:14:07;;;;;;;1.30;1.00;;;20.40;93.90;;;;;;5074525;28;20518;-84
2022/05/08 10:16:48;;;;;;;1.67;1.30;;;20.40;93.80;;;;;;5075060;28;20439;-83
2022/05/08 10:19:55;;;;;;;2.07;1.27;;;20.40;95.60;;;;;;5075274;28;20472;-89
2022/05/08 10:22:23;;;;;;;1.10;0.80;;;20.50;94.60;;;;;;5075541;28;20600;-85
2022/05/08 10:24:56;;;;;;;0.83;0.83;;;20.60;93.10;;;;;;5075921;28;20575;-85
2022/05/08 10:27:25;;;;;;;1.67;1.50;;;20.60;92.60;;;;;;5075244;28;20803;-87
2022/05/08 10:30:28;;;;;;;1.50;1.40;;;20.60;93.30;;;;;;5074671;28;21002;-84
2022/05/08 10:32:57;;;;;;;1.37;1.27;;;20.70;94.10;;;;;;5075271;28;20483;-86
2022/05/08 10:35:26;;;;;;;2.43;1.10;;;20.90;93.30;;;;;;5076096;28;20528;-86
2022/05/08 10:38:16;;;;;;;1.30;1.20;;;20.90;93.40;;;;;;5075184;28;20484;-85
2022/05/08 10:40:46;;;;;;;1.10;1.00;;;21.00;93.30;;;;;;5074790;28;21000;-83
2022/05/08 10:43:33;;;;;;;1.33;1.20;;;21.00;92.30;;;;;;5074902;28;20448;-86
2022/05/08 10:46:26;;;;;;;1.40;1.10;;;21.00;91.00;;;;;;5075117;28;20482;-84
2022/05/08 10:48:54;;;;;;;1.57;1.23;;;20.70;91.60;;;;;;5074463;28;20429;-85
2022/05/08 10:51:21;;;;;;;2.53;1.30;;;20.60;91.30;;;;;;5074588;28;20448;-84
2022/05/08 10:53:48;;;;;;;1.17;1.00;;;20.50;91.00;;;;;;5074898;28;20449;-85
2022/05/08 10:56:16;;;;;;;1.97;1.37;;;20.50;91.80;;;;;;5074761;28;20445;-84
2022/05/08 10:58:53;;;;;;;4.33;1.73;;;20.70;92.80;;;;;;5074574;28;20507;-87
2022/05/08 11:01:20;;;;;;;2.40;1.03;;;21.00;92.70;;;;;;5074736;28;20443;-87
2022/05/08 11:03:47;;;;;;;1.70;1.30;;;21.00;92.70;;;;;;5075408;28;20476;-86
2022/05/08 11:06:20;;;;;;;1.07;0.83;;;20.90;93.00;;;;;;5074824;28;20440;-86
2022/05/08 11:08:47;;;;;;;1.57;1.43;;;21.00;93.40;;;;;;5075242;28;20433;-88
2022/05/08 11:11:14;;;;;;;0.80;0.80;;;21.10;92.50;;;;;;5074637;28;20425;-85
2022/05/08 11:13:43;;;;;;;1.70;1.20;;;21.20;91.80;;;;;;5074623;28;20523;-87
2022/05/08 11:16:12;;;;;;;1.63;1.00;;;21.20;92.00;;;;;;5074287;28;20442;-88
2022/05/08 11:18:39;;;;;;;1.67;1.43;;;21.20;92.50;;;;;;5075861;28;20448;-86
2022/05/08 11:21:08;;;;;;;1.10;0.80;;;21.10;90.60;;;;;;5079297;28;20452;-87
2022/05/08 11:23:37;;;;;;;1.57;1.00;;;20.90;90.60;;;;;;5078382;28;20452;-82
2022/05/08 11:26:06;;;;;;;0.70;0.70;;;20.80;90.20;;;;;;5079341;28;20452;-84
2022/05/08 11:28:35;;;;;;;1.30;0.90;;;20.70;91.00;;;;;;5079354;28;20474;-84
2022/05/08 11:31:13;;;;;;;2.20;0.93;;;20.80;90.80;;;;;;5079915;28;20495;-85
2022/05/08 11:36:27;;;;;;;0.97;0.97;;;21.00;90.20;;;;;;5085247;28;20428;-87
2022/05/08 11:38:58;;;;;;;2.00;0.80;;;20.90;89.10;;;;;;5079517;28;20448;-86
2022/05/08 11:41:36;;;;;;;1.10;1.00;;;20.70;90.00;;;;;;5079262;28;20412;-88
2022/05/08 11:44:16;;;;;;;1.83;0.60;;;20.80;88.70;;;;;;5078876;28;20476;-87
2022/05/08 11:46:45;;;;;;;0.83;0.83;;;20.80;89.20;;;;;;5080102;28;20903;-84
2022/05/08 11:49:16;;;;;;;0.70;0.70;;;20.70;87.20;;;;;;5078519;28;20559;-86
2022/05/08 11:51:44;;;;;;;1.00;0.90;;;20.50;87.70;;;;;;5078216;28;20464;-87
2022/05/08 11:54:23;;;;;;;1.10;0.80;;;20.40;88.80;;;;;;5078800;28;20449;-84
2022/05/08 11:56:53;;;;;;;3.10;1.37;;;20.50;90.00;;;;;;5078248;28;20455;-85
2022/05/08 11:59:22;;;;;;;1.20;1.10;;;20.60;90.00;;;;;;5078095;28;20468;-84
2022/05/08 12:01:50;;;;;;;0.90;0.80;;;20.60;87.30;;;;;;5077801;28;20448;-85
2022/05/08 12:04:26;;;;;;;1.50;1.40;;;20.40;86.60;;;;;;5078269;28;20480;-86
2022/05/08 12:06:59;;;;;;;2.10;0.87;;;20.30;88.40;;;;;;5078288;28;20448;-87
2022/05/08 12:09:27;;;;;;;1.57;1.00;;;20.20;88.60;;;;;;5077697;28;20465;-86
2022/05/08 12:11:54;;;;;;;1.03;0.93;;;20.10;88.60;;;;;;5078447;28;20444;-88
2022/05/08 12:14:31;;;;;;;1.20;1.10;;;20.00;88.20;;;;;;5079463;28;20824;-86
2022/05/08 12:17:02;;;;;;;3.03;1.60;;;19.90;89.50;;;;;;5078006;28;20476;-85
2022/05/08 12:19:30;;;;;;;0.83;0.83;;;19.90;90.00;;;;;;5079961;28;20465;-85
2022/05/08 12:21:57;;;;;;;1.37;1.00;;;20.00;89.00;;;;;;5078221;28;20445;-86
2022/05/08 12:24:24;;;;;;;0.90;0.80;;;20.00;88.20;;;;;;5079468;28;20813;-87
2022/05/08 12:26:53;;;;;;;1.20;1.10;;;20.00;87.10;;;;;;5078583;28;20436;-88
2022/05/08 12:29:21;;;;;;;1.00;1.00;;;20.00;88.80;;;;;;5078346;28;20480;-87
2022/05/08 12:31:51;;;;;;;1.43;1.00;;;20.10;88.30;;;;;;5078030;28;20561;-87
2022/05/08 12:34:19;;;;;;;0.80;0.60;;;20.20;87.90;;;;;;5079636;28;20476;-88
2022/05/08 12:36:47;;;;;;;0.77;0.77;;;20.00;87.30;;;;;;5080618;28;20445;-88
2022/05/08 12:39:14;;;;;;;1.60;1.10;;;20.00;87.50;;;;;;5080326;28;20461;-88
2022/05/08 12:41:40;;;;;;;1.07;1.00;;;20.00;88.60;;;;;;5077954;28;20457;-89
2022/05/08 12:44:09;;;;;;;1.37;1.07;;;20.10;88.40;;;;;;5077813;28;20968;-88
2022/05/08 12:46:36;;;;;;;1.00;1.00;;;20.20;88.10;;;;;;5077109;28;20467;-87
2022/05/08 12:49:03;;;;;;;1.13;0.90;;;20.30;87.50;;;;;;5077233;28;20475;-89
2022/05/08 12:51:32;;;;;;;1.07;1.07;;;20.40;83.20;;;;;;5077361;28;20455;-91
2022/05/08 12:54:01;;;;;;;1.00;0.90;;;20.40;83.80;;;;;;5077395;28;20457;-87
2022/05/08 12:56:29;;;;;;;0.60;0.57;;;20.40;84.70;;;;;;5076995;28;20463;-87
2022/05/08 13:01:41;;;;;;;0.70;0.60;;;20.40;80.50;;;;;;5077127;28;20862;-86
2022/05/08 13:04:08;;;;;;;0.70;0.70;;;20.40;81.00;;;;;;5075952;28;20951;-86
2022/05/08 13:06:35;;;;;;;2.53;0.90;;;20.40;80.80;;;;;;5076067;28;20932;-87
2022/05/08 13:09:03;;;;;;;0.60;0.60;;;20.30;81.70;;;;;;5077285;28;20469;-87
2022/05/08 13:11:30;;;;;;;0.80;0.60;;;20.30;81.80;;;;;;5076513;28;20436;-87
2022/05/08 13:13:57;;;;;;;0.80;0.70;;;20.50;81.50;;;;;;5076519;28;20448;-87
2022/05/08 13:16:24;;;;;;;1.20;0.70;;;20.60;79.60;;;;;;5076138;28;20444;-85
2022/05/08 13:18:52;;;;;;;0.90;0.90;;;20.70;80.00;;;;;;5076658;28;20848;-90
2022/05/08 13:21:19;;;;;;;1.20;1.03;;;20.70;79.60;;;;;;5077111;28;20448;-86
2022/05/08 13:23:46;;;;;;;0.93;0.90;;;20.70;79.60;;;;;;5076753;28;20444;-90
2022/05/08 13:26:12;;;;;;;1.10;1.00;;;20.70;79.40;;;;;;5077389;28;20507;-87
2022/05/08 13:28:39;;;;;;;0.90;0.90;;;20.70;79.50;;;;;;5076476;28;20448;-90
2022/05/08 13:31:06;;;;;;;1.13;1.03;;;20.70;78.40;;;;;;5076341;28;20809;-87
2022/05/08 13:33:34;;;;;;;1.00;0.80;;;20.70;79.70;;;;;;5078891;28;20486;-86
2022/05/08 13:36:02;;;;;;;0.60;0.60;;;20.70;79.20;;;;;;5077142;28;20433;-92
2022/05/08 13:38:29;;;;;;;1.00;0.70;;;20.70;78.40;;;;;;5077170;28;20429;-88
2022/05/08 13:40:57;;;;;;;1.73;0.77;;;20.60;78.60;;;;;;5077388;28;20453;-87
2022/05/08 13:43:25;;;;;;;1.57;0.70;;;20.60;77.30;;;;;;5076216;28;20531;-84
2022/05/08 13:45:51;;;;;;;0.87;0.87;;;20.60;78.60;;;;;;5077034;28;20490;-85
2022/05/08 13:48:19;;;;;;;2.53;1.20;;;20.60;77.90;;;;;;5077369;28;20436;-87